Arivaca, Arizona
Current Conditions -  °F | °C
As of 5:54 AM on Monday 20 Oct 2014 (Local Time) from KOLS Reporting Station
Clear Clear  
Wind Chill: 12°   Ceiling: Unl
Heat Index: 12°   Visibility: 10mi
Dew Point:   Wind: 8mph
Humidity: 74%   Direction: 30°NNE
Pressure: 30"   Gusts: NA
Location:  31.57°N, 111.33°W
Report Text: KOLS 201254Z AUTO 03007KT 10SM CLR 12/07 A3000 RMK AO2 SLP115 T01170072
Loading
Personal Weather Stations






























Interactive Weather Map
Tropical Storm Tracking
New forecast layout! Learn more

10-Day Weather Forecast

Advertisements
Track Severe Weather on mobile